sensor_id;sensor_type;location;lat;lon;timestamp;P1;durP1;ratioP1;P2;durP2;ratioP2
33672;SDS011;20011;51.510;9.942;2023-07-08T00:00:26;6.38;;;3.85;;
33672;SDS011;20011;51.510;9.942;2023-07-08T00:02:53;5.10;;;3.45;;
33672;SDS011;20011;51.510;9.942;2023-07-08T00:05:21;7.07;;;4.10;;
33672;SDS011;20011;51.510;9.942;2023-07-08T00:07:51;6.78;;;4.07;;
33672;SDS011;20011;51.510;9.942;2023-07-08T00:10:20;9.60;;;4.53;;
33672;SDS011;20011;51.510;9.942;2023-07-08T00:12:51;7.90;;;4.07;;
33672;SDS011;20011;51.510;9.942;2023-07-08T00:15:32;7.82;;;3.50;;
33672;SDS011;20011;51.510;9.942;2023-07-08T00:18:00;9.00;;;3.85;;
33672;SDS011;20011;51.510;9.942;2023-07-08T00:20:38;8.15;;;3.75;;
33672;SDS011;20011;51.510;9.942;2023-07-08T00:23:11;5.55;;;3.72;;
33672;SDS011;20011;51.510;9.942;2023-07-08T00:25:39;5.03;;;3.20;;
33672;SDS011;20011;51.510;9.942;2023-07-08T00:28:18;5.05;;;3.53;;
33672;SDS011;20011;51.510;9.942;2023-07-08T00:30:47;4.63;;;3.15;;
33672;SDS011;20011;51.510;9.942;2023-07-08T00:33:17;3.75;;;3.03;;
33672;SDS011;20011;51.510;9.942;2023-07-08T00:35:45;8.52;;;2.97;;
33672;SDS011;20011;51.510;9.942;2023-07-08T00:38:21;11.90;;;3.45;;
33672;SDS011;20011;51.510;9.942;2023-07-08T00:40:59;6.75;;;2.80;;
33672;SDS011;20011;51.510;9.942;2023-07-08T00:51:34;15.47;;;3.17;;
33672;SDS011;20011;51.510;9.942;2023-07-08T00:54:05;7.18;;;3.00;;
33672;SDS011;20011;51.510;9.942;2023-07-08T00:56:41;4.75;;;3.03;;
33672;SDS011;20011;51.510;9.942;2023-07-08T00:59:34;5.35;;;2.70;;
33672;SDS011;20011;51.510;9.942;2023-07-08T01:02:06;3.97;;;2.92;;
33672;SDS011;20011;51.510;9.942;2023-07-08T01:07:30;3.17;;;2.70;;
33672;SDS011;20011;51.510;9.942;2023-07-08T01:10:03;5.10;;;2.83;;
33672;SDS011;20011;51.510;9.942;2023-07-08T01:12:41;6.55;;;2.67;;
33672;SDS011;20011;51.510;9.942;2023-07-08T01:15:11;5.60;;;3.28;;
33672;SDS011;20011;51.510;9.942;2023-07-08T01:17:44;5.25;;;3.10;;
33672;SDS011;20011;51.510;9.942;2023-07-08T01:20:12;9.85;;;3.05;;
33672;SDS011;20011;51.510;9.942;2023-07-08T01:25:12;5.22;;;3.28;;
33672;SDS011;20011;51.510;9.942;2023-07-08T01:27:45;8.27;;;2.97;;
33672;SDS011;20011;51.510;9.942;2023-07-08T01:30:14;6.45;;;3.15;;
33672;SDS011;20011;51.510;9.942;2023-07-08T01:32:48;4.93;;;3.17;;
33672;SDS011;20011;51.510;9.942;2023-07-08T01:35:21;5.63;;;3.22;;
33672;SDS011;20011;51.510;9.942;2023-07-08T01:37:49;6.68;;;3.80;;
33672;SDS011;20011;51.510;9.942;2023-07-08T01:42:59;10.13;;;3.38;;
33672;SDS011;20011;51.510;9.942;2023-07-08T01:45:29;7.38;;;3.30;;
33672;SDS011;20011;51.510;9.942;2023-07-08T01:48:07;10.18;;;3.00;;
33672;SDS011;20011;51.510;9.942;2023-07-08T01:50:39;5.35;;;2.80;;
33672;SDS011;20011;51.510;9.942;2023-07-08T01:53:14;9.15;;;2.75;;
33672;SDS011;20011;51.510;9.942;2023-07-08T01:55:43;5.00;;;3.15;;
33672;SDS011;20011;51.510;9.942;2023-07-08T01:58:11;3.00;;;2.70;;
33672;SDS011;20011;51.510;9.942;2023-07-08T02:00:39;4.60;;;2.92;;
33672;SDS011;20011;51.510;9.942;2023-07-08T02:03:06;3.63;;;2.60;;
33672;SDS011;20011;51.510;9.942;2023-07-08T02:05:34;5.85;;;2.90;;
33672;SDS011;20011;51.510;9.942;2023-07-08T02:08:01;3.65;;;2.40;;
33672;SDS011;20011;51.510;9.942;2023-07-08T02:10:28;8.98;;;2.65;;
33672;SDS011;20011;51.510;9.942;2023-07-08T02:12:55;9.77;;;2.80;;
33672;SDS011;20011;51.510;9.942;2023-07-08T02:15:25;3.13;;;2.65;;
33672;SDS011;20011;51.510;9.942;2023-07-08T02:17:53;5.88;;;3.17;;
33672;SDS011;20011;51.510;9.942;2023-07-08T02:20:21;4.10;;;2.40;;
33672;SDS011;20011;51.510;9.942;2023-07-08T02:22:48;4.57;;;3.03;;
33672;SDS011;20011;51.510;9.942;2023-07-08T02:25:16;11.55;;;2.58;;
33672;SDS011;20011;51.510;9.942;2023-07-08T02:27:46;6.15;;;2.67;;
33672;SDS011;20011;51.510;9.942;2023-07-08T02:30:13;3.63;;;2.38;;
33672;SDS011;20011;51.510;9.942;2023-07-08T02:32:40;5.18;;;2.60;;
33672;SDS011;20011;51.510;9.942;2023-07-08T02:35:08;4.32;;;2.75;;
33672;SDS011;20011;51.510;9.942;2023-07-08T02:37:36;6.28;;;3.05;;
33672;SDS011;20011;51.510;9.942;2023-07-08T02:40:03;5.70;;;2.50;;
33672;SDS011;20011;51.510;9.942;2023-07-08T02:42:31;14.77;;;2.92;;
33672;SDS011;20011;51.510;9.942;2023-07-08T02:44:59;5.40;;;2.63;;
33672;SDS011;20011;51.510;9.942;2023-07-08T02:47:28;3.78;;;2.60;;
33672;SDS011;20011;51.510;9.942;2023-07-08T02:49:55;4.78;;;3.05;;
33672;SDS011;20011;51.510;9.942;2023-07-08T02:52:25;3.28;;;2.55;;
33672;SDS011;20011;51.510;9.942;2023-07-08T02:54:52;3.75;;;2.70;;
33672;SDS011;20011;51.510;9.942;2023-07-08T02:57:19;5.43;;;2.90;;
33672;SDS011;20011;51.510;9.942;2023-07-08T02:59:47;4.60;;;2.42;;
33672;SDS011;20011;51.510;9.942;2023-07-08T03:02:15;2.95;;;2.60;;
33672;SDS011;20011;51.510;9.942;2023-07-08T03:04:50;9.68;;;3.25;;
33672;SDS011;20011;51.510;9.942;2023-07-08T03:07:17;6.00;;;2.53;;
33672;SDS011;20011;51.510;9.942;2023-07-08T03:09:47;5.13;;;2.75;;
33672;SDS011;20011;51.510;9.942;2023-07-08T03:12:17;7.75;;;2.80;;
33672;SDS011;20011;51.510;9.942;2023-07-08T03:14:44;5.90;;;2.55;;
33672;SDS011;20011;51.510;9.942;2023-07-08T03:17:15;5.07;;;2.28;;
33672;SDS011;20011;51.510;9.942;2023-07-08T03:19:46;2.90;;;2.17;;
33672;SDS011;20011;51.510;9.942;2023-07-08T03:22:16;8.85;;;2.28;;
33672;SDS011;20011;51.510;9.942;2023-07-08T03:24:44;3.85;;;2.30;;
33672;SDS011;20011;51.510;9.942;2023-07-08T03:27:16;6.57;;;2.70;;
33672;SDS011;20011;51.510;9.942;2023-07-08T03:29:48;2.58;;;2.10;;
33672;SDS011;20011;51.510;9.942;2023-07-08T03:32:16;3.83;;;2.72;;
33672;SDS011;20011;51.510;9.942;2023-07-08T03:34:44;4.78;;;2.65;;
33672;SDS011;20011;51.510;9.942;2023-07-08T03:37:12;4.55;;;2.67;;
33672;SDS011;20011;51.510;9.942;2023-07-08T03:39:40;4.95;;;2.90;;
33672;SDS011;20011;51.510;9.942;2023-07-08T03:42:07;5.50;;;2.38;;
33672;SDS011;20011;51.510;9.942;2023-07-08T03:44:36;4.78;;;2.70;;
33672;SDS011;20011;51.510;9.942;2023-07-08T03:47:03;4.75;;;2.40;;
33672;SDS011;20011;51.510;9.942;2023-07-08T03:49:31;4.32;;;2.50;;
33672;SDS011;20011;51.510;9.942;2023-07-08T03:52:00;4.28;;;2.75;;
33672;SDS011;20011;51.510;9.942;2023-07-08T03:54:29;4.55;;;2.75;;
33672;SDS011;20011;51.510;9.942;2023-07-08T03:56:57;4.57;;;2.47;;
33672;SDS011;20011;51.510;9.942;2023-07-08T03:59:26;3.53;;;2.58;;
33672;SDS011;20011;51.510;9.942;2023-07-08T04:01:55;6.07;;;2.40;;
33672;SDS011;20011;51.510;9.942;2023-07-08T04:04:25;5.20;;;2.70;;
33672;SDS011;20011;51.510;9.942;2023-07-08T04:06:55;4.70;;;2.30;;
33672;SDS011;20011;51.510;9.942;2023-07-08T04:09:22;3.13;;;2.47;;
33672;SDS011;20011;51.510;9.942;2023-07-08T04:11:49;3.53;;;2.30;;
33672;SDS011;20011;51.510;9.942;2023-07-08T04:14:17;5.82;;;2.42;;
33672;SDS011;20011;51.510;9.942;2023-07-08T04:16:55;9.07;;;2.78;;
33672;SDS011;20011;51.510;9.942;2023-07-08T04:19:25;7.50;;;3.47;;
33672;SDS011;20011;51.510;9.942;2023-07-08T04:21:54;7.88;;;2.80;;
33672;SDS011;20011;51.510;9.942;2023-07-08T04:24:22;10.48;;;3.67;;
33672;SDS011;20011;51.510;9.942;2023-07-08T04:26:50;3.55;;;2.42;;
33672;SDS011;20011;51.510;9.942;2023-07-08T04:29:19;5.97;;;3.08;;
33672;SDS011;20011;51.510;9.942;2023-07-08T04:31:52;3.40;;;2.47;;
33672;SDS011;20011;51.510;9.942;2023-07-08T04:34:19;11.98;;;2.30;;
33672;SDS011;20011;51.510;9.942;2023-07-08T04:36:47;4.95;;;2.80;;
33672;SDS011;20011;51.510;9.942;2023-07-08T04:39:16;8.65;;;3.30;;
33672;SDS011;20011;51.510;9.942;2023-07-08T04:41:43;6.13;;;2.85;;
33672;SDS011;20011;51.510;9.942;2023-07-08T04:44:11;6.90;;;3.20;;
33672;SDS011;20011;51.510;9.942;2023-07-08T04:46:44;18.02;;;4.13;;
33672;SDS011;20011;51.510;9.942;2023-07-08T04:49:22;8.55;;;3.25;;
33672;SDS011;20011;51.510;9.942;2023-07-08T04:51:51;5.43;;;3.17;;
33672;SDS011;20011;51.510;9.942;2023-07-08T04:54:22;7.55;;;2.80;;
33672;SDS011;20011;51.510;9.942;2023-07-08T04:56:50;5.70;;;3.33;;
33672;SDS011;20011;51.510;9.942;2023-07-08T04:59:24;5.60;;;3.60;;
33672;SDS011;20011;51.510;9.942;2023-07-08T05:01:52;6.93;;;2.95;;
33672;SDS011;20011;51.510;9.942;2023-07-08T05:04:22;5.60;;;3.58;;
33672;SDS011;20011;51.510;9.942;2023-07-08T05:06:50;10.00;;;3.40;;
33672;SDS011;20011;51.510;9.942;2023-07-08T05:09:17;6.68;;;3.40;;
33672;SDS011;20011;51.510;9.942;2023-07-08T05:11:49;4.40;;;2.88;;
33672;SDS011;20011;51.510;9.942;2023-07-08T05:14:18;5.30;;;3.30;;
33672;SDS011;20011;51.510;9.942;2023-07-08T05:16:46;6.28;;;3.13;;
33672;SDS011;20011;51.510;9.942;2023-07-08T05:19:14;11.68;;;3.33;;
33672;SDS011;20011;51.510;9.942;2023-07-08T05:21:50;6.18;;;3.20;;
33672;SDS011;20011;51.510;9.942;2023-07-08T05:24:18;4.88;;;3.20;;
33672;SDS011;20011;51.510;9.942;2023-07-08T05:26:48;5.68;;;3.17;;
33672;SDS011;20011;51.510;9.942;2023-07-08T05:29:16;5.57;;;3.72;;
33672;SDS011;20011;51.510;9.942;2023-07-08T05:31:43;4.95;;;2.95;;
33672;SDS011;20011;51.510;9.942;2023-07-08T05:36:43;7.75;;;4.10;;
33672;SDS011;20011;51.510;9.942;2023-07-08T05:39:12;7.93;;;3.30;;
33672;SDS011;20011;51.510;9.942;2023-07-08T05:44:10;4.50;;;3.10;;
33672;SDS011;20011;51.510;9.942;2023-07-08T05:46:37;5.72;;;3.50;;
33672;SDS011;20011;51.510;9.942;2023-07-08T05:49:09;7.30;;;3.70;;
33672;SDS011;20011;51.510;9.942;2023-07-08T05:51:36;8.43;;;3.08;;
33672;SDS011;20011;51.510;9.942;2023-07-08T05:54:04;4.38;;;3.35;;
33672;SDS011;20011;51.510;9.942;2023-07-08T05:56:33;11.23;;;3.28;;
33672;SDS011;20011;51.510;9.942;2023-07-08T05:59:01;8.93;;;3.13;;
33672;SDS011;20011;51.510;9.942;2023-07-08T06:01:28;8.85;;;3.75;;
33672;SDS011;20011;51.510;9.942;2023-07-08T06:03:56;6.35;;;3.40;;
33672;SDS011;20011;51.510;9.942;2023-07-08T06:06:27;4.88;;;3.47;;
33672;SDS011;20011;51.510;9.942;2023-07-08T06:08:55;7.88;;;3.42;;
33672;SDS011;20011;51.510;9.942;2023-07-08T06:11:23;5.82;;;3.20;;
33672;SDS011;20011;51.510;9.942;2023-07-08T06:13:50;5.82;;;3.15;;
33672;SDS011;20011;51.510;9.942;2023-07-08T06:16:17;10.13;;;2.92;;
33672;SDS011;20011;51.510;9.942;2023-07-08T06:19:04;4.65;;;2.88;;
33672;SDS011;20011;51.510;9.942;2023-07-08T06:21:32;5.60;;;3.55;;
33672;SDS011;20011;51.510;9.942;2023-07-08T06:23:59;6.10;;;2.65;;
33672;SDS011;20011;51.510;9.942;2023-07-08T06:26:26;8.30;;;3.65;;
33672;SDS011;20011;51.510;9.942;2023-07-08T06:28:54;5.93;;;3.20;;
33672;SDS011;20011;51.510;9.942;2023-07-08T06:31:23;10.13;;;3.95;;
33672;SDS011;20011;51.510;9.942;2023-07-08T06:33:51;5.70;;;3.05;;
33672;SDS011;20011;51.510;9.942;2023-07-08T06:36:18;6.70;;;3.60;;
33672;SDS011;20011;51.510;9.942;2023-07-08T06:38:46;6.68;;;3.47;;
33672;SDS011;20011;51.510;9.942;2023-07-08T06:41:16;10.13;;;2.97;;
33672;SDS011;20011;51.510;9.942;2023-07-08T06:47:36;7.63;;;3.38;;
33672;SDS011;20011;51.510;9.942;2023-07-08T06:50:05;4.28;;;3.08;;
33672;SDS011;20011;51.510;9.942;2023-07-08T06:52:33;7.10;;;3.67;;
33672;SDS011;20011;51.510;9.942;2023-07-08T06:55:05;8.52;;;3.63;;
33672;SDS011;20011;51.510;9.942;2023-07-08T06:57:34;11.57;;;3.47;;
33672;SDS011;20011;51.510;9.942;2023-07-08T07:00:02;5.75;;;3.42;;
33672;SDS011;20011;51.510;9.942;2023-07-08T07:02:33;6.90;;;3.30;;
33672;SDS011;20011;51.510;9.942;2023-07-08T07:05:09;5.25;;;3.33;;
33672;SDS011;20011;51.510;9.942;2023-07-08T07:07:56;7.50;;;2.70;;
33672;SDS011;20011;51.510;9.942;2023-07-08T07:10:35;9.73;;;3.65;;
33672;SDS011;20011;51.510;9.942;2023-07-08T07:13:10;5.32;;;3.22;;
33672;SDS011;20011;51.510;9.942;2023-07-08T07:15:42;5.78;;;3.60;;
33672;SDS011;20011;51.510;9.942;2023-07-08T07:20:54;6.93;;;3.20;;
33672;SDS011;20011;51.510;9.942;2023-07-08T07:23:30;4.88;;;3.10;;
33672;SDS011;20011;51.510;9.942;2023-07-08T07:26:01;5.65;;;2.90;;
33672;SDS011;20011;51.510;9.942;2023-07-08T07:28:34;7.78;;;3.35;;
33672;SDS011;20011;51.510;9.942;2023-07-08T07:31:09;11.73;;;3.40;;
33672;SDS011;20011;51.510;9.942;2023-07-08T07:33:39;6.93;;;3.97;;
33672;SDS011;20011;51.510;9.942;2023-07-08T07:36:14;3.97;;;2.72;;
33672;SDS011;20011;51.510;9.942;2023-07-08T07:38:43;11.10;;;3.53;;
33672;SDS011;20011;51.510;9.942;2023-07-08T07:41:10;6.22;;;3.20;;
33672;SDS011;20011;51.510;9.942;2023-07-08T07:43:47;5.53;;;3.38;;
33672;SDS011;20011;51.510;9.942;2023-07-08T07:46:17;6.18;;;2.97;;
33672;SDS011;20011;51.510;9.942;2023-07-08T07:48:44;5.75;;;3.40;;
33672;SDS011;20011;51.510;9.942;2023-07-08T07:51:12;9.77;;;3.20;;
33672;SDS011;20011;51.510;9.942;2023-07-08T07:53:39;7.18;;;3.50;;
33672;SDS011;20011;51.510;9.942;2023-07-08T07:56:06;4.95;;;3.17;;
33672;SDS011;20011;51.510;9.942;2023-07-08T07:58:33;5.45;;;3.10;;
33672;SDS011;20011;51.510;9.942;2023-07-08T08:01:01;7.38;;;3.10;;
33672;SDS011;20011;51.510;9.942;2023-07-08T08:05:58;3.80;;;2.70;;
33672;SDS011;20011;51.510;9.942;2023-07-08T08:08:26;5.63;;;3.20;;
33672;SDS011;20011;51.510;9.942;2023-07-08T08:10:56;5.00;;;2.63;;
33672;SDS011;20011;51.510;9.942;2023-07-08T08:13:23;6.75;;;3.33;;
33672;SDS011;20011;51.510;9.942;2023-07-08T08:15:55;5.53;;;3.10;;
33672;SDS011;20011;51.510;9.942;2023-07-08T08:18:24;4.95;;;3.25;;
33672;SDS011;20011;51.510;9.942;2023-07-08T08:20:51;3.80;;;2.88;;
33672;SDS011;20011;51.510;9.942;2023-07-08T08:23:18;3.97;;;2.72;;
33672;SDS011;20011;51.510;9.942;2023-07-08T08:25:46;5.55;;;2.80;;
33672;SDS011;20011;51.510;9.942;2023-07-08T08:28:13;6.68;;;2.83;;
33672;SDS011;20011;51.510;9.942;2023-07-08T08:30:40;4.50;;;3.08;;
33672;SDS011;20011;51.510;9.942;2023-07-08T08:33:23;3.80;;;3.10;;
33672;SDS011;20011;51.510;9.942;2023-07-08T08:35:50;13.30;;;2.97;;
33672;SDS011;20011;51.510;9.942;2023-07-08T08:38:17;5.50;;;3.10;;
33672;SDS011;20011;51.510;9.942;2023-07-08T08:40:45;5.13;;;2.95;;
33672;SDS011;20011;51.510;9.942;2023-07-08T08:43:14;13.70;;;3.85;;
33672;SDS011;20011;51.510;9.942;2023-07-08T08:48:32;7.07;;;3.42;;
33672;SDS011;20011;51.510;9.942;2023-07-08T08:51:40;8.20;;;3.00;;
33672;SDS011;20011;51.510;9.942;2023-07-08T08:54:07;3.58;;;2.67;;
33672;SDS011;20011;51.510;9.942;2023-07-08T08:56:39;5.07;;;3.25;;
33672;SDS011;20011;51.510;9.942;2023-07-08T08:59:18;7.93;;;3.60;;
33672;SDS011;20011;51.510;9.942;2023-07-08T09:01:56;7.55;;;3.00;;
33672;SDS011;20011;51.510;9.942;2023-07-08T09:04:26;3.53;;;2.90;;
33672;SDS011;20011;51.510;9.942;2023-07-08T09:07:04;6.75;;;3.63;;
33672;SDS011;20011;51.510;9.942;2023-07-08T09:09:46;21.60;;;3.85;;
33672;SDS011;20011;51.510;9.942;2023-07-08T09:12:27;6.18;;;3.28;;
33672;SDS011;20011;51.510;9.942;2023-07-08T09:14:57;9.25;;;4.05;;
33672;SDS011;20011;51.510;9.942;2023-07-08T09:17:31;12.20;;;3.35;;
33672;SDS011;20011;51.510;9.942;2023-07-08T09:25:28;5.80;;;3.33;;
33672;SDS011;20011;51.510;9.942;2023-07-08T09:27:56;5.47;;;3.45;;
33672;SDS011;20011;51.510;9.942;2023-07-08T09:30:24;7.22;;;3.08;;
33672;SDS011;20011;51.510;9.942;2023-07-08T09:32:53;5.45;;;2.58;;
33672;SDS011;20011;51.510;9.942;2023-07-08T09:35:25;10.20;;;3.92;;
33672;SDS011;20011;51.510;9.942;2023-07-08T09:37:57;4.43;;;2.67;;
33672;SDS011;20011;51.510;9.942;2023-07-08T09:40:34;8.13;;;2.75;;
33672;SDS011;20011;51.510;9.942;2023-07-08T09:46:03;3.08;;;2.15;;
33672;SDS011;20011;51.510;9.942;2023-07-08T09:48:35;5.10;;;2.47;;
33672;SDS011;20011;51.510;9.942;2023-07-08T09:51:03;6.28;;;2.80;;
33672;SDS011;20011;51.510;9.942;2023-07-08T09:53:31;6.63;;;2.65;;
33672;SDS011;20011;51.510;9.942;2023-07-08T09:56:00;5.75;;;2.85;;
33672;SDS011;20011;51.510;9.942;2023-07-08T09:58:32;5.03;;;2.97;;
33672;SDS011;20011;51.510;9.942;2023-07-08T10:01:15;5.97;;;2.97;;
33672;SDS011;20011;51.510;9.942;2023-07-08T10:03:48;5.38;;;2.88;;
33672;SDS011;20011;51.510;9.942;2023-07-08T10:06:22;2.67;;;2.30;;
33672;SDS011;20011;51.510;9.942;2023-07-08T10:08:54;3.38;;;2.47;;
33672;SDS011;20011;51.510;9.942;2023-07-08T10:14:58;4.72;;;2.78;;
33672;SDS011;20011;51.510;9.942;2023-07-08T10:16:54;4.07;;;2.53;;
33672;SDS011;20011;51.510;9.942;2023-07-08T10:19:25;6.55;;;3.03;;
33672;SDS011;20011;51.510;9.942;2023-07-08T10:22:10;10.15;;;3.15;;
33672;SDS011;20011;51.510;9.942;2023-07-08T10:36:51;3.78;;;2.60;;
33672;SDS011;20011;51.510;9.942;2023-07-08T10:42:38;8.18;;;2.83;;
33672;SDS011;20011;51.510;9.942;2023-07-08T10:45:16;7.22;;;3.38;;
33672;SDS011;20011;51.510;9.942;2023-07-08T10:48:06;5.93;;;3.45;;
33672;SDS011;20011;51.510;9.942;2023-07-08T10:59:13;6.57;;;3.25;;
33672;SDS011;20011;51.510;9.942;2023-07-08T11:09:55;6.95;;;3.97;;
33672;SDS011;20011;51.510;9.942;2023-07-08T11:12:33;7.35;;;4.38;;
33672;SDS011;20011;51.510;9.942;2023-07-08T11:17:52;6.75;;;3.60;;
33672;SDS011;20011;51.510;9.942;2023-07-08T11:20:38;9.05;;;3.80;;
33672;SDS011;20011;51.510;9.942;2023-07-08T11:28:57;6.38;;;3.78;;
33672;SDS011;20011;51.510;9.942;2023-07-08T11:31:26;6.50;;;3.73;;
33672;SDS011;20011;51.510;9.942;2023-07-08T11:33:57;6.32;;;4.13;;
33672;SDS011;20011;51.510;9.942;2023-07-08T11:36:25;5.18;;;3.45;;
33672;SDS011;20011;51.510;9.942;2023-07-08T11:38:55;5.20;;;3.90;;
33672;SDS011;20011;51.510;9.942;2023-07-08T11:41:24;6.03;;;3.92;;
33672;SDS011;20011;51.510;9.942;2023-07-08T11:43:57;6.07;;;4.03;;
33672;SDS011;20011;51.510;9.942;2023-07-08T11:46:26;5.60;;;3.47;;
33672;SDS011;20011;51.510;9.942;2023-07-08T11:48:56;5.63;;;3.50;;
33672;SDS011;20011;51.510;9.942;2023-07-08T11:51:39;5.35;;;3.85;;
33672;SDS011;20011;51.510;9.942;2023-07-08T11:54:14;6.50;;;3.60;;
33672;SDS011;20011;51.510;9.942;2023-07-08T11:57:00;6.18;;;3.70;;
33672;SDS011;20011;51.510;9.942;2023-07-08T11:59:39;7.40;;;3.75;;
33672;SDS011;20011;51.510;9.942;2023-07-08T12:04:58;6.50;;;3.60;;
33672;SDS011;20011;51.510;9.942;2023-07-08T12:07:41;5.07;;;3.45;;
33672;SDS011;20011;51.510;9.942;2023-07-08T12:10:27;4.32;;;3.53;;
33672;SDS011;20011;51.510;9.942;2023-07-08T12:12:54;6.35;;;3.83;;
33672;SDS011;20011;51.510;9.942;2023-07-08T12:15:28;7.28;;;4.40;;
33672;SDS011;20011;51.510;9.942;2023-07-08T12:20:38;7.10;;;3.80;;
33672;SDS011;20011;51.510;9.942;2023-07-08T12:23:28;9.68;;;4.30;;
33672;SDS011;20011;51.510;9.942;2023-07-08T12:25:55;8.73;;;4.20;;
33672;SDS011;20011;51.510;9.942;2023-07-08T12:28:24;6.93;;;3.85;;
33672;SDS011;20011;51.510;9.942;2023-07-08T12:30:51;5.93;;;3.67;;
33672;SDS011;20011;51.510;9.942;2023-07-08T12:33:26;7.75;;;3.65;;
33672;SDS011;20011;51.510;9.942;2023-07-08T12:35:56;5.00;;;3.67;;
33672;SDS011;20011;51.510;9.942;2023-07-08T12:38:39;7.55;;;4.03;;
33672;SDS011;20011;51.510;9.942;2023-07-08T12:41:09;5.70;;;3.30;;
33672;SDS011;20011;51.510;9.942;2023-07-08T12:43:40;6.03;;;3.55;;
33672;SDS011;20011;51.510;9.942;2023-07-08T12:46:11;5.50;;;3.53;;
33672;SDS011;20011;51.510;9.942;2023-07-08T12:48:40;5.25;;;3.40;;
33672;SDS011;20011;51.510;9.942;2023-07-08T12:51:12;5.13;;;3.20;;
33672;SDS011;20011;51.510;9.942;2023-07-08T12:53:43;5.05;;;3.13;;
33672;SDS011;20011;51.510;9.942;2023-07-08T12:56:11;7.13;;;3.90;;
33672;SDS011;20011;51.510;9.942;2023-07-08T12:58:40;8.13;;;3.85;;
33672;SDS011;20011;51.510;9.942;2023-07-08T13:03:42;6.18;;;3.45;;
33672;SDS011;20011;51.510;9.942;2023-07-08T13:06:11;5.45;;;3.40;;
33672;SDS011;20011;51.510;9.942;2023-07-08T13:11:08;7.70;;;4.20;;
33672;SDS011;20011;51.510;9.942;2023-07-08T13:13:41;5.00;;;4.05;;
33672;SDS011;20011;51.510;9.942;2023-07-08T13:16:23;5.35;;;3.42;;
33672;SDS011;20011;51.510;9.942;2023-07-08T13:18:55;4.40;;;3.40;;
33672;SDS011;20011;51.510;9.942;2023-07-08T13:21:22;8.02;;;4.07;;
33672;SDS011;20011;51.510;9.942;2023-07-08T13:23:50;8.68;;;3.78;;
33672;SDS011;20011;51.510;9.942;2023-07-08T13:26:19;10.70;;;4.18;;
33672;SDS011;20011;51.510;9.942;2023-07-08T13:28:49;5.60;;;3.88;;
33672;SDS011;20011;51.510;9.942;2023-07-08T13:31:25;9.63;;;3.67;;
33672;SDS011;20011;51.510;9.942;2023-07-08T13:34:06;7.95;;;3.95;;
33672;SDS011;20011;51.510;9.942;2023-07-08T13:36:43;5.45;;;3.30;;
33672;SDS011;20011;51.510;9.942;2023-07-08T13:39:14;13.52;;;3.95;;
33672;SDS011;20011;51.510;9.942;2023-07-08T13:42:02;4.50;;;3.30;;
33672;SDS011;20011;51.510;9.942;2023-07-08T13:44:34;12.63;;;3.70;;
33672;SDS011;20011;51.510;9.942;2023-07-08T13:47:18;4.97;;;3.50;;
33672;SDS011;20011;51.510;9.942;2023-07-08T13:49:49;5.65;;;4.00;;
33672;SDS011;20011;51.510;9.942;2023-07-08T13:52:21;6.45;;;3.53;;
33672;SDS011;20011;51.510;9.942;2023-07-08T13:57:27;6.30;;;3.85;;
33672;SDS011;20011;51.510;9.942;2023-07-08T13:59:58;4.43;;;3.38;;
33672;SDS011;20011;51.510;9.942;2023-07-08T14:02:27;6.70;;;3.55;;
33672;SDS011;20011;51.510;9.942;2023-07-08T14:04:58;5.18;;;3.50;;
33672;SDS011;20011;51.510;9.942;2023-07-08T14:07:28;6.35;;;3.97;;
33672;SDS011;20011;51.510;9.942;2023-07-08T14:09:58;7.32;;;3.92;;
33672;SDS011;20011;51.510;9.942;2023-07-08T14:12:25;6.15;;;3.20;;
33672;SDS011;20011;51.510;9.942;2023-07-08T14:14:52;5.60;;;3.22;;
33672;SDS011;20011;51.510;9.942;2023-07-08T14:17:20;6.93;;;3.90;;
33672;SDS011;20011;51.510;9.942;2023-07-08T14:19:51;5.30;;;3.63;;
33672;SDS011;20011;51.510;9.942;2023-07-08T14:22:21;5.25;;;3.83;;
33672;SDS011;20011;51.510;9.942;2023-07-08T14:24:48;6.45;;;3.58;;
33672;SDS011;20011;51.510;9.942;2023-07-08T14:27:16;4.45;;;3.60;;
33672;SDS011;20011;51.510;9.942;2023-07-08T14:29:48;5.28;;;3.72;;
33672;SDS011;20011;51.510;9.942;2023-07-08T14:32:18;7.32;;;3.80;;
33672;SDS011;20011;51.510;9.942;2023-07-08T14:34:57;5.30;;;3.55;;
33672;SDS011;20011;51.510;9.942;2023-07-08T14:37:45;5.30;;;3.60;;
33672;SDS011;20011;51.510;9.942;2023-07-08T14:40:18;5.50;;;4.00;;
33672;SDS011;20011;51.510;9.942;2023-07-08T14:43:15;8.85;;;3.75;;
33672;SDS011;20011;51.510;9.942;2023-07-08T14:45:55;6.95;;;4.00;;
33672;SDS011;20011;51.510;9.942;2023-07-08T14:48:24;6.20;;;3.72;;
33672;SDS011;20011;51.510;9.942;2023-07-08T14:50:52;10.03;;;4.37;;
33672;SDS011;20011;51.510;9.942;2023-07-08T14:53:19;16.23;;;3.80;;
33672;SDS011;20011;51.510;9.942;2023-07-08T14:55:47;7.13;;;4.03;;
33672;SDS011;20011;51.510;9.942;2023-07-08T14:58:23;6.45;;;3.90;;
33672;SDS011;20011;51.510;9.942;2023-07-08T15:00:59;10.73;;;4.18;;
33672;SDS011;20011;51.510;9.942;2023-07-08T15:03:34;9.95;;;3.97;;
33672;SDS011;20011;51.510;9.942;2023-07-08T15:06:01;4.60;;;3.47;;
33672;SDS011;20011;51.510;9.942;2023-07-08T15:08:28;7.43;;;4.07;;
33672;SDS011;20011;51.510;9.942;2023-07-08T15:10:55;5.45;;;3.63;;
33672;SDS011;20011;51.510;9.942;2023-07-08T15:13:23;7.10;;;3.70;;
33672;SDS011;20011;51.510;9.942;2023-07-08T15:15:56;9.25;;;4.88;;
33672;SDS011;20011;51.510;9.942;2023-07-08T15:18:23;8.35;;;4.70;;
33672;SDS011;20011;51.510;9.942;2023-07-08T15:20:51;10.05;;;4.28;;
33672;SDS011;20011;51.510;9.942;2023-07-08T15:23:18;11.10;;;5.15;;
33672;SDS011;20011;51.510;9.942;2023-07-08T15:25:45;8.70;;;4.78;;
33672;SDS011;20011;51.510;9.942;2023-07-08T15:28:18;9.00;;;5.18;;
33672;SDS011;20011;51.510;9.942;2023-07-08T15:30:46;10.35;;;4.68;;
33672;SDS011;20011;51.510;9.942;2023-07-08T15:33:14;13.77;;;4.95;;
33672;SDS011;20011;51.510;9.942;2023-07-08T15:35:42;13.70;;;5.07;;
33672;SDS011;20011;51.510;9.942;2023-07-08T15:38:10;7.45;;;4.53;;
33672;SDS011;20011;51.510;9.942;2023-07-08T15:40:37;7.93;;;4.97;;
33672;SDS011;20011;51.510;9.942;2023-07-08T15:43:05;8.82;;;4.75;;
33672;SDS011;20011;51.510;9.942;2023-07-08T15:45:39;9.35;;;4.32;;
33672;SDS011;20011;51.510;9.942;2023-07-08T15:48:13;9.32;;;5.10;;
33672;SDS011;20011;51.510;9.942;2023-07-08T15:50:41;6.70;;;4.22;;
33672;SDS011;20011;51.510;9.942;2023-07-08T15:53:09;7.45;;;4.15;;
33672;SDS011;20011;51.510;9.942;2023-07-08T15:55:43;9.05;;;5.00;;
33672;SDS011;20011;51.510;9.942;2023-07-08T15:58:20;8.77;;;3.95;;
33672;SDS011;20011;51.510;9.942;2023-07-08T16:00:49;15.27;;;5.22;;
33672;SDS011;20011;51.510;9.942;2023-07-08T16:03:27;8.10;;;4.38;;
33672;SDS011;20011;51.510;9.942;2023-07-08T16:05:57;6.90;;;4.38;;
33672;SDS011;20011;51.510;9.942;2023-07-08T16:08:25;7.63;;;4.35;;
33672;SDS011;20011;51.510;9.942;2023-07-08T16:13:25;9.27;;;4.43;;
33672;SDS011;20011;51.510;9.942;2023-07-08T16:15:54;8.50;;;4.53;;
33672;SDS011;20011;51.510;9.942;2023-07-08T16:18:24;8.52;;;4.07;;
33672;SDS011;20011;51.510;9.942;2023-07-08T16:20:52;6.82;;;4.53;;
33672;SDS011;20011;51.510;9.942;2023-07-08T16:23:20;9.93;;;4.20;;
33672;SDS011;20011;51.510;9.942;2023-07-08T16:25:48;7.38;;;4.88;;
33672;SDS011;20011;51.510;9.942;2023-07-08T16:28:21;8.05;;;4.38;;
33672;SDS011;20011;51.510;9.942;2023-07-08T16:33:36;6.28;;;4.40;;
33672;SDS011;20011;51.510;9.942;2023-07-08T16:36:05;6.88;;;4.22;;
33672;SDS011;20011;51.510;9.942;2023-07-08T16:38:38;6.72;;;3.95;;
33672;SDS011;20011;51.510;9.942;2023-07-08T16:41:11;8.50;;;4.07;;
33672;SDS011;20011;51.510;9.942;2023-07-08T16:43:39;6.03;;;3.80;;
33672;SDS011;20011;51.510;9.942;2023-07-08T16:46:12;6.40;;;4.28;;
33672;SDS011;20011;51.510;9.942;2023-07-08T16:48:41;7.72;;;4.32;;
33672;SDS011;20011;51.510;9.942;2023-07-08T16:51:16;6.90;;;3.63;;